createdAt,value
2023-02-05T00:01:31.498Z,101411.38
2023-02-05T00:03:58.756Z,101403.28
2023-02-05T00:06:25.783Z,101396.72
2023-02-05T00:08:52.963Z,101399.09
2023-02-05T00:11:19.879Z,101411.16
2023-02-05T00:13:47.069Z,101415.78
2023-02-05T00:16:17.722Z,101415.00
2023-02-05T00:18:44.956Z,101408.47
2023-02-05T00:21:12.251Z,101417.47
2023-02-05T00:23:39.600Z,101416.72
2023-02-05T00:26:07.374Z,101426.00
2023-02-05T00:28:35.668Z,101422.16
2023-02-05T00:31:07.642Z,101417.13
2023-02-05T00:33:35.079Z,101433.88
2023-02-05T00:36:04.381Z,101422.59
2023-02-05T00:38:31.647Z,101430.00
2023-02-05T00:40:58.808Z,101431.91
2023-02-05T00:43:26.098Z,101433.88
2023-02-05T00:45:52.991Z,101441.63
2023-02-05T00:48:20.341Z,101445.13
2023-02-05T00:50:50.961Z,101450.59
2023-02-05T00:53:19.167Z,101451.41
2023-02-05T00:55:46.391Z,101448.34
2023-02-05T00:58:13.777Z,101444.53
2023-02-05T01:00:40.675Z,101455.03
2023-02-05T01:03:07.936Z,101465.13
2023-02-05T01:05:35.852Z,101466.75
2023-02-05T01:08:03.875Z,101473.75
2023-02-05T01:10:30.956Z,101464.78
2023-02-05T01:12:58.166Z,101469.09
2023-02-05T01:15:27.371Z,101471.06
2023-02-05T01:17:54.940Z,101481.59
2023-02-05T01:20:21.959Z,101482.81
2023-02-05T01:22:49.622Z,101478.94
2023-02-05T01:25:16.532Z,101478.56
2023-02-05T01:27:45.280Z,101480.94
2023-02-05T01:30:16.229Z,101487.91
2023-02-05T01:32:43.433Z,101481.25
2023-02-05T01:35:10.364Z,101480.47
2023-02-05T01:37:37.654Z,101468.06
2023-02-05T01:40:04.817Z,101466.94
2023-02-05T01:42:32.771Z,101463.84
2023-02-05T01:45:18.401Z,101468.16
2023-02-05T01:47:45.601Z,101468.19
2023-02-05T01:50:12.643Z,101472.91
2023-02-05T01:52:39.900Z,101468.25
2023-02-05T01:55:07.639Z,101474.09
2023-02-05T01:57:37.933Z,101477.25
2023-02-05T02:00:05.796Z,101470.72
2023-02-05T02:02:42.010Z,101483.16
2023-02-05T02:05:10.270Z,101489.78
2023-02-05T02:07:37.614Z,101492.53
2023-02-05T02:10:04.692Z,101498.34
2023-02-05T02:12:33.725Z,101500.31
2023-02-05T02:15:05.448Z,101493.75
2023-02-05T02:17:39.254Z,101492.63
2023-02-05T02:20:08.152Z,101503.84
2023-02-05T02:22:53.855Z,101505.03
2023-02-05T02:25:23.444Z,101508.91
2023-02-05T02:27:50.704Z,101507.78
2023-02-05T02:30:19.182Z,101512.09
2023-02-05T02:32:58.526Z,101512.84
2023-02-05T02:35:25.989Z,101505.50
2023-02-05T02:38:02.158Z,101510.91
2023-02-05T02:40:36.310Z,101504.31
2023-02-05T02:43:07.798Z,101523.31
2023-02-05T02:45:36.750Z,101514.00
2023-02-05T02:48:05.996Z,101513.63
2023-02-05T02:50:37.861Z,101521.81
2023-02-05T02:53:09.645Z,101512.53
2023-02-05T02:55:43.668Z,101513.69
2023-02-05T02:58:16.648Z,101517.19
2023-02-05T03:00:44.892Z,101514.50
2023-02-05T03:03:13.590Z,101517.59
2023-02-05T03:05:42.215Z,101524.56
2023-02-05T03:08:15.610Z,101514.09
2023-02-05T03:10:46.251Z,101525.34
2023-02-05T03:13:15.143Z,101517.22
2023-02-05T03:15:48.145Z,101514.13
2023-02-05T03:18:17.689Z,101515.69
2023-02-05T03:20:50.873Z,101505.59
2023-02-05T03:23:18.883Z,101507.91
2023-02-05T03:25:46.096Z,101516.06
2023-02-05T03:28:15.798Z,101507.97
2023-02-05T03:30:44.298Z,101519.97
2023-02-05T03:33:26.737Z,101508.34
2023-02-05T03:36:13.913Z,101510.28
2023-02-05T03:38:57.365Z,101507.97
2023-02-05T03:42:03.863Z,101502.53
2023-02-05T03:44:45.078Z,101497.47
2023-02-05T03:47:18.979Z,101499.44
2023-02-05T03:49:52.619Z,101497.13
2023-02-05T03:52:31.424Z,101495.94
2023-02-05T03:55:14.048Z,101500.19
2023-02-05T03:57:47.279Z,101506.00
2023-02-05T04:00:15.377Z,101516.47
2023-02-05T04:02:45.168Z,101511.84
2023-02-05T04:05:17.740Z,101514.94
2023-02-05T04:07:44.707Z,101516.88
2023-02-05T04:10:13.330Z,101514.56
2023-02-05T04:12:41.262Z,101505.63
2023-02-05T04:15:11.602Z,101508.00
2023-02-05T04:17:42.264Z,101501.78
2023-02-05T04:20:10.143Z,101501.78
2023-02-05T04:22:37.351Z,101514.97
2023-02-05T04:25:04.830Z,101516.91
2023-02-05T04:27:32.179Z,101515.75
2023-02-05T04:30:01.865Z,101515.75
2023-02-05T04:32:32.060Z,101516.16
2023-02-05T04:35:02.068Z,101508.00
2023-02-05T04:37:31.995Z,101514.97
2023-02-05T04:40:00.431Z,101514.97
2023-02-05T04:42:27.314Z,101513.03
2023-02-05T04:44:54.601Z,101523.50
2023-02-05T04:47:21.673Z,101523.50
2023-02-05T04:49:48.871Z,101527.38
2023-02-05T04:52:15.749Z,101521.16
2023-02-05T04:54:42.868Z,101514.22
2023-02-05T04:57:09.819Z,101522.34
2023-02-05T04:59:37.060Z,101524.28
2023-02-05T05:02:06.199Z,101525.41
2023-02-05T05:04:36.133Z,101519.22
2023-02-05T05:07:03.466Z,101518.84
2023-02-05T05:09:30.697Z,101513.41
2023-02-05T05:11:59.990Z,101516.53
2023-02-05T05:14:29.428Z,101508.78
2023-02-05T05:16:56.285Z,101511.84
2023-02-05T05:19:23.426Z,101509.16
2023-02-05T05:21:50.319Z,101508.78
2023-02-05T05:24:17.540Z,101508.78
2023-02-05T05:26:45.247Z,101511.84
2023-02-05T05:29:13.052Z,101521.94
2023-02-05T05:31:40.612Z,101530.47
2023-02-05T05:34:07.936Z,101531.59
2023-02-05T05:36:34.867Z,101531.59
2023-02-05T05:39:22.201Z,101528.50
2023-02-05T05:42:10.176Z,101530.44
2023-02-05T05:44:37.528Z,101530.06
2023-02-05T05:47:04.513Z,101534.69
2023-02-05T05:49:34.133Z,101535.06
2023-02-05T05:52:01.046Z,101535.47
2023-02-05T05:54:31.347Z,101528.13
2023-02-05T05:56:58.194Z,101522.69
2023-02-05T05:59:25.377Z,101525.41
2023-02-05T06:01:52.241Z,101535.50
2023-02-05T06:04:19.916Z,101528.91
2023-02-05T06:06:47.099Z,101536.25
2023-02-05T06:09:14.262Z,101539.34
2023-02-05T06:11:43.572Z,101537.03
2023-02-05T06:14:10.775Z,101544.78
2023-02-05T06:16:37.662Z,101543.22
2023-02-05T06:19:05.018Z,101542.06
2023-02-05T06:21:34.206Z,101546.72
2023-02-05T06:24:03.761Z,101541.66
2023-02-05T06:26:30.778Z,101545.53
2023-02-05T06:29:03.220Z,101540.91
2023-02-05T06:31:30.834Z,101535.47
2023-02-05T06:33:58.184Z,101533.53
2023-02-05T06:36:25.341Z,101540.50
2023-02-05T06:38:52.525Z,101541.28
2023-02-05T06:41:19.369Z,101545.94
2023-02-05T06:43:46.784Z,101556.38
2023-02-05T06:46:13.776Z,101536.66
2023-02-05T06:48:41.294Z,101549.81
2023-02-05T06:51:08.171Z,101565.06
2023-02-05T06:53:35.427Z,101572.41
2023-02-05T06:56:02.492Z,101577.72
2023-02-05T06:58:29.743Z,101578.38
2023-02-05T07:00:56.582Z,101589.75
2023-02-05T07:03:23.772Z,101585.88
2023-02-05T07:05:50.666Z,101596.34
2023-02-05T07:08:17.916Z,101613.63
2023-02-05T07:10:47.198Z,101622.66
2023-02-05T07:13:14.354Z,101628.63
2023-02-05T07:15:41.372Z,101640.63
2023-02-05T07:18:11.419Z,101636.59
2023-02-05T07:20:38.460Z,101643.44
2023-02-05T07:23:05.880Z,101643.34
2023-02-05T07:25:39.081Z,101644.69
2023-02-05T07:28:07.470Z,101644.69
2023-02-05T07:30:35.286Z,101634.06
2023-02-05T07:33:03.662Z,101629.84
2023-02-05T07:35:31.587Z,101627.34
2023-02-05T07:37:59.484Z,101624.13
2023-02-05T07:40:26.391Z,101629.28
2023-02-05T07:42:53.733Z,101630.97
2023-02-05T07:45:22.767Z,101629.44
2023-02-05T07:47:53.956Z,101638.19
2023-02-05T07:50:20.993Z,101637.47
2023-02-05T07:52:48.245Z,101640.53
2023-02-05T07:55:15.220Z,101634.09
2023-02-05T07:57:45.086Z,101635.16
2023-02-05T08:00:12.378Z,101630.91
2023-02-05T08:02:42.194Z,101643.22
2023-02-05T08:05:11.187Z,101641.28
2023-02-05T08:07:38.580Z,101655.91
2023-02-05T08:10:05.660Z,101656.84
2023-02-05T08:12:32.905Z,101666.34
2023-02-05T08:14:59.959Z,101667.25
2023-02-05T08:17:27.120Z,101655.03
2023-02-05T08:19:54.030Z,101664.31
2023-02-05T08:22:24.246Z,101654.00
2023-02-05T08:24:51.172Z,101657.84
2023-02-05T08:27:18.448Z,101660.59
2023-02-05T08:29:47.284Z,101656.63
2023-02-05T08:32:14.522Z,101649.94
2023-02-05T08:34:41.682Z,101646.16
2023-02-05T08:37:08.933Z,101641.78
2023-02-05T08:39:35.909Z,101642.22
2023-02-05T08:42:03.408Z,101643.69
2023-02-05T08:44:30.422Z,101643.06
2023-02-05T08:46:57.633Z,101640.75
2023-02-05T08:49:27.134Z,101649.69
2023-02-05T08:51:54.352Z,101649.69
2023-02-05T08:54:21.347Z,101643.56
2023-02-05T08:56:50.524Z,101635.59
2023-02-05T08:59:17.860Z,101626.13
2023-02-05T09:01:45.399Z,101634.66
2023-02-05T09:04:19.333Z,101631.31
2023-02-05T09:06:46.911Z,101630.41
2023-02-05T09:09:14.005Z,101628.22
2023-02-05T09:11:41.632Z,101629.34
2023-02-05T09:14:08.913Z,101621.56
2023-02-05T09:16:36.438Z,101626.31
2023-02-05T09:23:19.731Z,101630.69
2023-02-05T09:25:46.804Z,101625.41
2023-02-05T09:28:14.598Z,101624.66
2023-02-05T09:30:43.112Z,101614.03
2023-02-05T09:33:10.974Z,101612.81
2023-02-05T09:35:38.079Z,101615.44
2023-02-05T09:38:07.809Z,101610.81
2023-02-05T09:40:40.676Z,101613.28
2023-02-05T09:43:07.827Z,101619.66
2023-02-05T09:45:46.638Z,101621.38
2023-02-05T09:48:28.655Z,101611.53
2023-02-05T09:50:57.994Z,101605.72
2023-02-05T09:53:27.347Z,101605.78
2023-02-05T09:55:58.292Z,101590.09
2023-02-05T09:58:27.904Z,101591.03
2023-02-05T10:01:01.725Z,101597.19
2023-02-05T10:03:45.027Z,101599.59
2023-02-05T10:06:30.259Z,101589.81
2023-02-05T10:09:20.919Z,101584.63
2023-02-05T10:11:50.948Z,101579.44
2023-02-05T10:14:24.327Z,101574.28
2023-02-05T10:17:02.754Z,101571.41
2023-02-05T10:19:42.304Z,101570.06
2023-02-05T10:22:35.593Z,101570.44
2023-02-05T10:25:02.872Z,101557.75
2023-02-05T10:27:47.929Z,101566.81
2023-02-05T10:30:26.033Z,101568.41
2023-02-05T10:33:00.141Z,101573.59
2023-02-05T10:35:27.646Z,101568.47
2023-02-05T10:37:57.644Z,101563.78
2023-02-05T10:40:28.653Z,101565.88
2023-02-05T10:43:00.756Z,101556.94
2023-02-05T10:45:29.851Z,101550.53
2023-02-05T10:48:15.561Z,101540.41
2023-02-05T10:50:45.349Z,101548.00
2023-02-05T10:53:16.546Z,101547.44
2023-02-05T10:55:44.045Z,101543.66
2023-02-05T10:58:29.832Z,101534.59
2023-02-05T11:00:57.952Z,101532.59
2023-02-05T11:03:25.273Z,101528.72
2023-02-05T11:05:53.216Z,101518.25
2023-02-05T11:08:34.747Z,101517.16
2023-02-05T11:11:02.301Z,101512.63
2023-02-05T11:13:30.210Z,101516.56
2023-02-05T11:15:59.904Z,101507.09
2023-02-05T11:18:28.359Z,101515.16
2023-02-05T11:20:56.965Z,101512.75
2023-02-05T11:23:27.395Z,101508.75
2023-02-05T11:25:56.104Z,101504.06
2023-02-05T11:28:26.809Z,101500.19
2023-02-05T11:30:54.360Z,101500.41
2023-02-05T11:33:21.788Z,101495.63
2023-02-05T11:35:52.556Z,101505.41
2023-02-05T11:38:30.007Z,101493.03
2023-02-05T11:41:05.610Z,101509.16
2023-02-05T11:43:34.628Z,101501.38
2023-02-05T11:46:03.547Z,101504.78
2023-02-05T11:48:49.509Z,101499.69
2023-02-05T11:51:28.025Z,101490.72
2023-02-05T11:53:57.627Z,101486.53
2023-02-05T11:56:28.620Z,101484.47
2023-02-05T11:59:01.005Z,101486.16
2023-02-05T12:01:32.397Z,101491.41
2023-02-05T12:03:59.571Z,101475.72
2023-02-05T12:06:32.004Z,101486.50
2023-02-05T12:08:59.387Z,101480.69
2023-02-05T12:11:56.017Z,101477.50
2023-02-05T12:14:38.479Z,101475.47
2023-02-05T12:17:08.564Z,101470.00
2023-02-05T12:19:47.111Z,101473.81
2023-02-05T12:22:14.329Z,101484.13
2023-02-05T12:24:50.782Z,101478.06
2023-02-05T12:27:21.441Z,101471.41
2023-02-05T12:29:57.102Z,101465.94
2023-02-05T12:32:27.699Z,101473.91
2023-02-05T12:35:06.916Z,101469.97
2023-02-05T12:38:03.876Z,101479.50
2023-02-05T12:41:06.572Z,101465.78
2023-02-05T12:43:39.031Z,101476.34
2023-02-05T12:46:15.222Z,101482.75
2023-02-05T12:48:54.654Z,101487.59
2023-02-05T12:51:21.953Z,101484.47
2023-02-05T12:53:49.959Z,101481.81
2023-02-05T12:56:30.629Z,101486.22
2023-02-05T12:59:01.394Z,101485.13
2023-02-05T13:01:42.723Z,101484.81
2023-02-05T13:04:19.734Z,101490.75
2023-02-05T13:07:00.482Z,101486.31
2023-02-05T13:09:34.786Z,101478.81
2023-02-05T13:12:07.864Z,101489.41
2023-02-05T13:14:45.507Z,101483.78
2023-02-05T13:17:16.704Z,101478.84
2023-02-05T13:19:48.292Z,101477.16
2023-02-05T13:22:37.947Z,101491.00
2023-02-05T13:25:37.767Z,101487.53
2023-02-05T13:28:40.522Z,101488.13
2023-02-05T13:31:13.766Z,101500.78
2023-02-05T13:33:42.208Z,101504.59
2023-02-05T13:36:10.175Z,101500.28
2023-02-05T13:38:50.609Z,101491.63
2023-02-05T13:41:17.904Z,101511.91
2023-02-05T13:43:52.800Z,101504.47
2023-02-05T13:46:23.196Z,101508.66
2023-02-05T13:49:01.409Z,101498.44
2023-02-05T13:51:35.394Z,101504.34
2023-02-05T13:54:11.351Z,101496.81
2023-02-05T13:56:44.993Z,101497.53
2023-02-05T13:59:12.647Z,101499.06
2023-02-05T14:01:46.337Z,101487.50
2023-02-05T14:04:22.956Z,101488.72
2023-02-05T14:06:56.388Z,101486.25
2023-02-05T14:09:27.443Z,101489.03
2023-02-05T14:11:57.486Z,101489.94
2023-02-05T14:14:30.450Z,101487.72
2023-02-05T14:17:01.588Z,101490.50
2023-02-05T14:19:32.523Z,101483.97
2023-02-05T14:22:10.884Z,101480.50
2023-02-05T14:24:45.751Z,101482.50
2023-02-05T14:27:40.129Z,101485.88
2023-02-05T14:30:44.707Z,101485.50
2023-02-05T14:33:24.682Z,101486.72
2023-02-05T14:35:55.540Z,101484.63
2023-02-05T14:38:26.678Z,101486.56
2023-02-05T14:41:14.919Z,101481.28
2023-02-05T14:43:45.270Z,101483.44
2023-02-05T14:46:34.238Z,101487.03
2023-02-05T14:49:04.205Z,101483.63
2023-02-05T14:51:35.392Z,101477.50
2023-02-05T14:54:06.190Z,101477.97
2023-02-05T14:56:44.116Z,101477.59
2023-02-05T14:59:24.764Z,101484.25
2023-02-05T15:01:54.554Z,101480.47
2023-02-05T15:04:28.954Z,101475.91
2023-02-05T15:06:58.752Z,101479.84
2023-02-05T15:09:37.506Z,101478.31
2023-02-05T15:12:34.594Z,101482.63
2023-02-05T15:15:21.918Z,101484.19
2023-02-05T15:17:51.259Z,101486.94
2023-02-05T15:20:40.332Z,101494.72
2023-02-05T15:23:15.797Z,101490.84
2023-02-05T15:25:45.974Z,101498.63
2023-02-05T15:28:28.183Z,101496.69
2023-02-05T15:31:06.814Z,101500.59
2023-02-05T15:33:45.784Z,101506.47
2023-02-05T15:36:30.911Z,101515.88
2023-02-05T15:39:24.912Z,101510.50
2023-02-05T15:41:55.635Z,101502.81
2023-02-05T15:44:26.249Z,101505.53
2023-02-05T15:46:54.510Z,101499.72
2023-02-05T15:49:24.505Z,101500.09
2023-02-05T15:51:52.323Z,101493.94
2023-02-05T15:54:21.769Z,101494.38
2023-02-05T15:56:52.927Z,101486.63
2023-02-05T15:59:26.839Z,101491.31
2023-02-05T16:02:00.989Z,101489.41
2023-02-05T16:04:33.417Z,101492.94
2023-02-05T16:07:01.947Z,101499.16
2023-02-05T16:09:35.588Z,101499.16
2023-02-05T16:12:13.464Z,101499.19
2023-02-05T16:14:41.408Z,101498.84
2023-02-05T16:17:13.061Z,101502.34
2023-02-05T16:19:50.667Z,101513.59
2023-02-05T16:22:24.772Z,101521.78
2023-02-05T16:24:54.401Z,101515.56
2023-02-05T16:27:33.472Z,101515.97
2023-02-05T16:30:08.041Z,101519.50
2023-02-05T16:32:43.039Z,101521.09
2023-02-05T16:35:26.066Z,101530.00
2023-02-05T16:37:58.229Z,101529.59
2023-02-05T16:40:33.217Z,101528.44
2023-02-05T16:43:17.936Z,101521.41
2023-02-05T16:46:05.316Z,101521.06
2023-02-05T16:48:36.878Z,101520.28
2023-02-05T16:51:04.587Z,101526.50
2023-02-05T16:53:37.157Z,101518.38
2023-02-05T16:56:20.321Z,101523.44
2023-02-05T16:58:49.805Z,101518.00
2023-02-05T17:01:24.818Z,101518.38
2023-02-05T17:03:53.000Z,101521.84
2023-02-05T17:06:21.726Z,101520.34
2023-02-05T17:08:52.652Z,101518.03
2023-02-05T17:11:33.720Z,101518.81
2023-02-05T17:14:16.004Z,101520.34
2023-02-05T17:16:46.645Z,101528.13
2023-02-05T17:19:31.827Z,101525.41
2023-02-05T17:22:14.466Z,101535.88
2023-02-05T17:24:43.310Z,101532.81
2023-02-05T17:27:15.379Z,101524.28
2023-02-05T17:29:44.738Z,101528.53
2023-02-05T17:32:21.508Z,101531.25
2023-02-05T17:34:51.386Z,101535.88
2023-02-05T17:37:20.199Z,101533.97
2023-02-05T17:39:51.970Z,101543.28
2023-02-05T17:42:27.069Z,101541.31
2023-02-05T17:44:55.236Z,101543.28
2023-02-05T17:47:23.127Z,101547.13
2023-02-05T17:49:51.446Z,101542.88
2023-02-05T17:52:19.093Z,101545.19
2023-02-05T17:54:46.843Z,101545.19
2023-02-05T17:57:26.978Z,101546.72
2023-02-05T17:59:57.426Z,101556.41
2023-02-05T18:02:25.196Z,101548.69
2023-02-05T18:04:53.693Z,101541.69
2023-02-05T18:07:37.250Z,101544.03
2023-02-05T18:10:06.268Z,101535.13
2023-02-05T18:12:34.036Z,101538.22
2023-02-05T18:15:02.181Z,101539.38
2023-02-05T18:17:30.026Z,101538.22
2023-02-05T18:19:57.860Z,101535.91
2023-02-05T18:22:25.503Z,101535.50
2023-02-05T18:24:56.613Z,101539.75
2023-02-05T18:27:24.640Z,101540.53
2023-02-05T18:29:53.258Z,101535.50
2023-02-05T18:32:21.263Z,101533.56
2023-02-05T18:34:49.927Z,101535.13
2023-02-05T18:37:17.980Z,101536.66
2023-02-05T18:39:46.515Z,101544.78
2023-02-05T18:42:14.033Z,101544.38
2023-02-05T18:44:42.465Z,101544.38
2023-02-05T18:47:11.293Z,101543.63
2023-02-05T18:49:39.591Z,101549.81
2023-02-05T18:52:07.788Z,101556.03
2023-02-05T18:54:35.573Z,101549.47
2023-02-05T18:57:03.700Z,101542.88
2023-02-05T18:59:32.112Z,101543.25
2023-02-05T19:01:59.818Z,101553.31
2023-02-05T19:04:28.255Z,101553.69
2023-02-05T19:06:58.298Z,101563.00
2023-02-05T19:09:26.909Z,101557.59
2023-02-05T19:11:55.718Z,101548.69
2023-02-05T19:14:24.707Z,101551.00
2023-02-05T19:16:54.726Z,101552.53
2023-02-05T19:19:24.126Z,101559.94
2023-02-05T19:21:55.937Z,101560.69
2023-02-05T19:24:26.191Z,101569.22
2023-02-05T19:26:56.976Z,101580.06
2023-02-05T19:29:25.923Z,101571.53
2023-02-05T19:31:55.505Z,101577.34
2023-02-05T19:34:24.558Z,101582.75
2023-02-05T19:36:52.169Z,101585.84
2023-02-05T19:39:19.980Z,101595.56
2023-02-05T19:41:52.492Z,101592.44
2023-02-05T19:44:20.982Z,101590.88
2023-02-05T19:46:49.465Z,101587.38
2023-02-05T19:49:22.151Z,101588.50
2023-02-05T19:51:55.942Z,101591.59
2023-02-05T19:54:24.184Z,101592.34
2023-02-05T19:56:53.149Z,101600.47
2023-02-05T19:59:26.926Z,101592.31
2023-02-05T20:01:56.324Z,101600.81
2023-02-05T20:04:29.947Z,101598.09
2023-02-05T20:07:00.382Z,101604.66
2023-02-05T20:09:29.966Z,101603.16
2023-02-05T20:11:58.208Z,101611.63
2023-02-05T20:14:26.531Z,101609.31
2023-02-05T20:16:55.742Z,101617.06
2023-02-05T20:19:26.175Z,101609.72
2023-02-05T20:21:54.152Z,101607.34
2023-02-05T20:24:23.130Z,101608.47
2023-02-05T20:26:50.920Z,101606.19
2023-02-05T20:29:38.826Z,101603.44
2023-02-05T20:32:07.011Z,101604.22
2023-02-05T20:34:36.601Z,101605.72
2023-02-05T20:37:08.365Z,101604.97
2023-02-05T20:39:40.138Z,101606.13
2023-02-05T20:42:08.086Z,101603.81
2023-02-05T20:44:36.629Z,101604.94
2023-02-05T20:47:09.408Z,101610.34
2023-02-05T20:49:42.991Z,101615.00
2023-02-05T20:52:11.804Z,101617.69
2023-02-05T20:54:39.994Z,101622.31
2023-02-05T20:57:08.457Z,101623.09
2023-02-05T20:59:37.066Z,101626.19
2023-02-05T21:02:04.983Z,101625.03
2023-02-05T21:04:33.185Z,101630.44
2023-02-05T21:07:01.464Z,101633.94
2023-02-05T21:09:29.287Z,101635.44
2023-02-05T21:11:57.542Z,101651.28
2023-02-05T21:14:25.308Z,101653.56
2023-02-05T21:16:52.764Z,101664.00
2023-02-05T21:19:20.122Z,101668.63
2023-02-05T21:21:49.959Z,101672.06
2023-02-05T21:24:19.245Z,101665.38
2023-02-05T21:26:50.884Z,101686.28
2023-02-05T21:29:19.516Z,101676.16
2023-02-05T21:31:48.091Z,101694.28
2023-02-05T21:34:19.087Z,101697.34
2023-02-05T21:36:48.236Z,101703.59
2023-02-05T21:39:17.033Z,101690.44
2023-02-05T21:41:47.658Z,101696.16
2023-02-05T21:44:14.651Z,101698.41
2023-02-05T21:46:42.394Z,101700.25
2023-02-05T21:49:10.688Z,101705.25
2023-02-05T21:51:38.044Z,101711.44
2023-02-05T21:54:06.376Z,101716.44
2023-02-05T21:56:45.658Z,101711.69
2023-02-05T21:59:13.025Z,101719.03
2023-02-05T22:01:41.861Z,101735.56
2023-02-05T22:04:15.006Z,101736.72
2023-02-05T22:06:42.698Z,101745.25
2023-02-05T22:09:11.345Z,101743.28
2023-02-05T22:11:42.687Z,101744.41
2023-02-05T22:14:10.109Z,101755.22
2023-02-05T22:16:37.654Z,101750.53
2023-02-05T22:19:05.148Z,101751.69
2023-02-05T22:21:33.524Z,101759.31
2023-02-05T22:24:01.189Z,101754.25
2023-02-05T22:26:32.194Z,101763.56
2023-02-05T22:29:00.056Z,101757.38
2023-02-05T22:31:29.744Z,101773.59
2023-02-05T22:33:57.076Z,101772.75
2023-02-05T22:36:25.652Z,101779.31
2023-02-05T22:38:52.932Z,101771.94
2023-02-05T22:41:21.372Z,101770.34
2023-02-05T22:43:48.245Z,101774.19
2023-02-05T22:46:17.001Z,101768.75
2023-02-05T22:48:45.071Z,101772.69
2023-02-05T22:51:13.560Z,101772.03
2023-02-05T22:53:45.865Z,101772.03
2023-02-05T22:56:13.909Z,101777.88
2023-02-05T22:58:42.699Z,101773.59
2023-02-05T23:01:11.875Z,101781.28
2023-02-05T23:03:39.030Z,101776.28
2023-02-05T23:06:12.704Z,101783.28
2023-02-05T23:08:39.876Z,101784.03
2023-02-05T23:11:10.696Z,101787.09
2023-02-05T23:13:37.615Z,101784.41
2023-02-05T23:16:08.764Z,101787.84
2023-02-05T23:18:36.352Z,101780.06
2023-02-05T23:21:10.887Z,101781.94
2023-02-05T23:23:37.900Z,101786.53
2023-02-05T23:26:15.940Z,101777.22
2023-02-05T23:28:43.365Z,101789.09
2023-02-05T23:31:10.603Z,101798.78
2023-02-05T23:33:37.877Z,101789.16
2023-02-05T23:36:05.857Z,101794.22
2023-02-05T23:38:33.124Z,101783.41
2023-02-05T23:41:00.648Z,101776.81
2023-02-05T23:43:34.583Z,101781.75
2023-02-05T23:46:02.604Z,101784.75
2023-02-05T23:48:29.496Z,101775.09
2023-02-05T23:50:59.636Z,101782.78
2023-02-05T23:53:26.638Z,101788.56
2023-02-05T23:55:54.208Z,101787.41
2023-02-05T23:58:24.024Z,101784.72
